Time;durP1;ratioP1;P1;durP2;ratioP2;P2;SDS_P1;SDS_P2;PMS_P1;PMS_P2;Temp;Humidity;BMP_temperature;BMP_pressure;BME280_temperature;BME280_humidity;BME280_pressure;Samples;Min_cycle;Max_cycle;Signal;HPM_P1;HPM_P2
2022/06/20 00:00:41;;;;;;;5.85;2.78;;;21.80;91.90;;;;;;5033524;28;20044;-75
2022/06/20 00:03:23;;;;;;;8.23;3.10;;;21.80;92.10;;;;;;5033363;28;20041;-77
2022/06/20 00:05:50;;;;;;;9.32;2.80;;;21.70;92.00;;;;;;5037691;28;20021;-76
2022/06/20 00:08:16;;;;;;;12.35;3.47;;;21.70;92.00;;;;;;5046072;28;20025;-76
2022/06/20 00:10:44;;;;;;;6.95;2.70;;;21.60;92.20;;;;;;5034388;28;20494;-76
2022/06/20 00:13:20;;;;;;;7.43;2.85;;;21.60;92.10;;;;;;5034277;28;20041;-76
2022/06/20 00:15:48;;;;;;;8.13;2.85;;;21.60;92.10;;;;;;5034600;28;20048;-75
2022/06/20 00:18:16;;;;;;;6.93;3.10;;;21.50;92.10;;;;;;5033581;28;20033;-73
2022/06/20 00:20:42;;;;;;;7.43;2.92;;;21.50;92.10;;;;;;5037737;28;20025;-75
2022/06/20 00:23:09;;;;;;;7.10;2.58;;;21.50;92.00;;;;;;5040470;28;20045;-75
2022/06/20 00:25:39;;;;;;;8.75;3.75;;;21.50;92.30;;;;;;5041953;28;20043;-74
2022/06/20 00:28:06;;;;;;;7.28;2.97;;;21.40;92.10;;;;;;5045483;28;20045;-75
2022/06/20 00:30:32;;;;;;;8.13;4.22;;;21.40;92.20;;;;;;5036336;28;20053;-75
2022/06/20 00:33:00;;;;;;;5.60;2.85;;;21.40;92.10;;;;;;5032770;28;20026;-75
2022/06/20 00:35:26;;;;;;;7.70;3.17;;;21.30;91.90;;;;;;5033430;28;20033;-76
2022/06/20 00:37:56;;;;;;;8.02;2.28;;;21.30;91.80;;;;;;5032956;28;20045;-76
2022/06/20 00:40:50;;;;;;;8.80;2.58;;;21.30;91.80;;;;;;5034483;28;20052;-75
2022/06/20 00:43:46;;;;;;;8.82;3.17;;;21.30;91.70;;;;;;5033493;28;20030;-75
2022/06/20 00:46:31;;;;;;;7.43;3.08;;;21.30;92.00;;;;;;5037851;28;20060;-77
2022/06/20 00:49:09;;;;;;;7.47;3.33;;;21.20;92.00;;;;;;5038814;28;20041;-76
2022/06/20 00:51:46;;;;;;;6.07;2.33;;;21.20;92.20;;;;;;5039765;28;20041;-76
2022/06/20 00:54:34;;;;;;;8.35;2.58;;;21.10;92.40;;;;;;5039660;28;20041;-75
2022/06/20 00:57:31;;;;;;;9.77;3.22;;;21.10;92.40;;;;;;5055514;28;20506;-75
2022/06/20 01:00:06;;;;;;;5.43;2.60;;;21.00;92.40;;;;;;5031662;28;20040;-76
2022/06/20 01:02:37;;;;;;;7.68;3.33;;;20.90;92.70;;;;;;5034523;28;20044;-76
2022/06/20 01:05:09;;;;;;;7.43;2.63;;;20.90;92.60;;;;;;5033173;28;20033;-74
2022/06/20 01:08:00;;;;;;;9.35;3.13;;;20.90;92.50;;;;;;5035714;28;20025;-75
2022/06/20 01:10:30;;;;;;;4.20;2.35;;;20.80;92.50;;;;;;5042739;28;20029;-76
2022/06/20 01:13:02;;;;;;;8.18;2.42;;;20.80;92.60;;;;;;5047617;28;20040;-76
2022/06/20 01:15:36;;;;;;;5.97;2.85;;;20.80;92.70;;;;;;5034590;28;20025;-75
2022/06/20 01:18:05;;;;;;;6.70;2.63;;;20.70;92.60;;;;;;5033729;28;20060;-75
2022/06/20 01:20:36;;;;;;;10.55;2.50;;;20.70;92.50;;;;;;5045851;28;20386;-75
2022/06/20 01:23:33;;;;;;;11.07;2.65;;;20.70;92.30;;;;;;5038546;28;20060;-75
2022/06/20 01:26:32;;;;;;;6.70;2.50;;;20.70;92.20;;;;;;5042515;28;20036;-75
2022/06/20 01:29:02;;;;;;;5.97;2.28;;;20.70;92.30;;;;;;5028779;28;20045;-76
2022/06/20 01:31:33;;;;;;;8.63;2.63;;;20.70;92.40;;;;;;5033415;28;20033;-75
2022/06/20 01:34:01;;;;;;;5.25;2.10;;;20.60;92.40;;;;;;5032661;28;20029;-76
2022/06/20 01:39:18;;;;;;;8.15;3.30;;;20.50;92.70;;;;;;5032314;28;20382;-75
2022/06/20 01:44:41;;;;;;;5.18;2.38;;;20.50;92.90;;;;;;5032140;28;20451;-75
2022/06/20 01:47:07;;;;;;;6.28;2.72;;;20.50;92.70;;;;;;5036522;28;20037;-74
2022/06/20 01:49:35;;;;;;;6.15;2.58;;;20.50;92.40;;;;;;5042258;28;20033;-74
2022/06/20 01:52:15;;;;;;;5.43;2.10;;;20.50;92.40;;;;;;5031561;28;20049;-74
2022/06/20 01:55:01;;;;;;;7.85;3.00;;;20.40;92.30;;;;;;5032450;28;20048;-73
2022/06/20 01:57:29;;;;;;;7.88;2.08;;;20.50;92.00;;;;;;5033822;28;20398;-73
2022/06/20 02:00:13;;;;;;;4.88;2.00;;;20.50;91.70;;;;;;5041763;28;20037;-74
2022/06/20 02:02:45;;;;;;;7.03;2.42;;;20.40;91.50;;;;;;5046422;28;20064;-76
2022/06/20 02:05:17;;;;;;;9.52;2.35;;;20.40;91.40;;;;;;5039449;28;20037;-75
2022/06/20 02:07:43;;;;;;;9.57;2.40;;;20.40;90.90;;;;;;5032030;28;20037;-73
2022/06/20 02:10:21;;;;;;;6.68;2.63;;;20.40;91.10;;;;;;5050767;28;20032;-73
2022/06/20 02:12:49;;;;;;;9.65;2.78;;;20.40;91.40;;;;;;5033397;28;20041;-73
2022/06/20 02:15:20;;;;;;;8.80;3.60;;;20.30;91.90;;;;;;5031330;28;20787;-72
2022/06/20 02:17:49;;;;;;;7.43;3.28;;;20.30;92.60;;;;;;5046154;28;20040;-72
2022/06/20 02:20:24;;;;;;;10.35;3.03;;;20.10;93.20;;;;;;5033737;28;20055;-75
2022/06/20 02:22:53;;;;;;;9.05;3.42;;;20.10;93.50;;;;;;5039055;28;20044;-73
2022/06/20 02:25:26;;;;;;;9.68;3.75;;;19.90;93.70;;;;;;5050220;28;20033;-73
2022/06/20 02:28:04;;;;;;;8.63;2.28;;;19.90;94.00;;;;;;5031610;28;20041;-74
2022/06/20 02:30:31;;;;;;;8.27;3.47;;;19.80;93.80;;;;;;5046717;28;20033;-73
2022/06/20 02:33:04;;;;;;;7.75;2.47;;;19.70;93.80;;;;;;5031120;28;20026;-75
2022/06/20 02:35:32;;;;;;;10.27;2.50;;;19.60;93.70;;;;;;5032148;28;20025;-74
2022/06/20 02:37:58;;;;;;;8.82;2.92;;;19.50;93.90;;;;;;5038850;28;20486;-73
2022/06/20 02:40:25;;;;;;;11.43;2.90;;;19.40;94.00;;;;;;5032249;28;20036;-72
2022/06/20 02:43:14;;;;;;;6.00;2.00;;;19.40;94.00;;;;;;5033679;28;20048;-72
2022/06/20 02:45:41;;;;;;;6.03;3.25;;;19.30;94.20;;;;;;5031103;28;20033;-72
2022/06/20 02:48:10;;;;;;;11.05;2.63;;;19.30;94.30;;;;;;5040908;28;20034;-75
2022/06/20 02:50:53;;;;;;;8.05;2.35;;;19.30;94.30;;;;;;5031238;28;20467;-75
2022/06/20 02:53:36;;;;;;;10.63;2.55;;;19.30;94.40;;;;;;5031752;28;20037;-75
2022/06/20 02:56:05;;;;;;;8.30;2.17;;;19.20;94.40;;;;;;5055810;28;20036;-72
2022/06/20 02:58:34;;;;;;;8.65;2.47;;;19.20;94.50;;;;;;5034868;28;20481;-72
2022/06/20 03:01:38;;;;;;;6.00;2.40;;;19.20;94.60;;;;;;5034914;28;20454;-73
2022/06/20 03:04:07;;;;;;;9.40;2.53;;;19.20;94.70;;;;;;5041931;28;20061;-72
2022/06/20 03:06:50;;;;;;;11.10;2.70;;;19.10;94.80;;;;;;5034926;28;20045;-71
2022/06/20 03:09:23;;;;;;;6.82;2.50;;;19.10;94.60;;;;;;5034209;28;20041;-73
2022/06/20 03:11:50;;;;;;;10.57;1.90;;;19.10;94.70;;;;;;5035056;28;20042;-72
2022/06/20 03:14:18;;;;;;;15.57;3.42;;;19.10;94.50;;;;;;5034309;28;20049;-71
2022/06/20 03:16:45;;;;;;;10.30;2.95;;;19.20;94.30;;;;;;5035062;28;20044;-71
2022/06/20 03:19:20;;;;;;;7.55;1.92;;;19.20;94.20;;;;;;5049867;28;20033;-73
2022/06/20 03:21:47;;;;;;;8.20;2.03;;;19.10;94.30;;;;;;5038708;28;20036;-72
2022/06/20 03:24:19;;;;;;;18.67;2.90;;;19.10;94.30;;;;;;5034201;28;20061;-71
2022/06/20 03:26:45;;;;;;;7.63;1.55;;;19.10;94.00;;;;;;5053869;28;20036;-73
2022/06/20 03:29:17;;;;;;;7.10;3.03;;;19.10;93.80;;;;;;5049331;28;20040;-71
2022/06/20 03:31:43;;;;;;;6.80;1.65;;;19.20;93.40;;;;;;5052383;28;20040;-72
2022/06/20 03:34:11;;;;;;;8.00;2.83;;;19.20;93.10;;;;;;5042104;28;20036;-72
2022/06/20 03:36:39;;;;;;;8.07;1.40;;;19.20;92.80;;;;;;5034497;28;20041;-71
2022/06/20 03:39:06;;;;;;;8.05;2.25;;;19.20;92.70;;;;;;5033862;28;20045;-72
2022/06/20 03:41:33;;;;;;;5.00;1.90;;;19.20;92.50;;;;;;5038159;28;20056;-72
2022/06/20 03:44:20;;;;;;;4.95;1.98;;;19.20;92.60;;;;;;5037267;28;20383;-72
2022/06/20 03:46:54;;;;;;;5.75;2.40;;;19.20;92.60;;;;;;5034057;28;20029;-73
2022/06/20 03:49:34;;;;;;;6.45;1.77;;;19.20;92.50;;;;;;5033684;28;20044;-73
2022/06/20 03:52:11;;;;;;;6.88;2.63;;;19.20;92.40;;;;;;5033870;28;20041;-75
2022/06/20 03:54:45;;;;;;;3.75;1.50;;;19.20;92.30;;;;;;5035950;28;20045;-74
2022/06/20 03:57:20;;;;;;;6.22;2.20;;;19.20;92.10;;;;;;5034806;28;20044;-74
2022/06/20 03:59:54;;;;;;;3.90;1.58;;;19.30;91.80;;;;;;5034977;28;20037;-73
2022/06/20 04:02:30;;;;;;;3.33;1.92;;;19.30;91.60;;;;;;5034156;28;20598;-76
2022/06/20 04:05:10;;;;;;;9.43;2.83;;;19.30;91.50;;;;;;5038251;28;20041;-77
2022/06/20 04:08:06;;;;;;;5.55;1.67;;;19.30;91.50;;;;;;5040321;28;20041;-76
2022/06/20 04:10:58;;;;;;;6.43;1.60;;;19.40;91.30;;;;;;5027967;28;20049;-74
2022/06/20 04:13:40;;;;;;;6.20;1.77;;;19.50;91.00;;;;;;5033927;28;20065;-73
2022/06/20 04:16:20;;;;;;;6.70;1.70;;;19.60;90.70;;;;;;5035654;28;20026;-75
2022/06/20 04:19:11;;;;;;;8.10;1.80;;;19.70;90.50;;;;;;5036290;28;20359;-73
2022/06/20 04:22:11;;;;;;;4.93;1.80;;;20.00;88.90;;;;;;5034188;28;20049;-74
2022/06/20 04:24:46;;;;;;;5.28;1.58;;;20.50;87.70;;;;;;5036259;28;20121;-73
2022/06/20 04:27:25;;;;;;;6.10;1.45;;;20.80;82.90;;;;;;5038906;28;20523;-74
2022/06/20 04:30:05;;;;;;;5.80;2.35;;;20.60;83.60;;;;;;5033306;28;20030;-74
2022/06/20 04:32:50;;;;;;;5.70;1.50;;;20.80;82.40;;;;;;5041757;28;20058;-75
2022/06/20 04:35:25;;;;;;;7.93;1.90;;;21.50;81.70;;;;;;5034176;28;20382;-75
2022/06/20 04:38:20;;;;;;;3.95;1.20;;;21.70;79.70;;;;;;5033043;28;20041;-77
2022/06/20 04:40:56;;;;;;;4.03;1.45;;;21.20;77.20;;;;;;5034137;28;20024;-76
2022/06/20 04:43:30;;;;;;;4.30;1.52;;;20.70;81.60;;;;;;5034008;28;20037;-77
2022/06/20 04:46:17;;;;;;;4.22;1.35;;;20.30;82.90;;;;;;5022094;28;20586;-76
2022/06/20 04:48:47;;;;;;;3.55;1.45;;;20.30;86.40;;;;;;5034726;28;20049;-77
2022/06/20 04:51:21;;;;;;;4.72;1.63;;;20.30;85.20;;;;;;5038567;28;20038;-78
2022/06/20 04:53:49;;;;;;;4.55;1.80;;;20.40;85.60;;;;;;5034799;28;20056;-77
2022/06/20 04:56:26;;;;;;;6.97;1.58;;;20.30;83.70;;;;;;5040990;28;20373;-80
2022/06/20 04:59:02;;;;;;;4.97;1.73;;;20.20;86.10;;;;;;5035435;28;20033;-80
2022/06/20 05:01:33;;;;;;;6.53;1.45;;;20.20;86.60;;;;;;5033842;28;20104;-86
2022/06/20 05:04:27;;;;;;;6.93;2.78;;;20.10;86.20;;;;;;5045763;28;20033;-84
2022/06/20 05:06:55;;;;;;;5.63;2.67;;;20.10;87.50;;;;;;5046265;28;20393;-79
2022/06/20 05:09:44;;;;;;;4.90;1.75;;;20.20;87.30;;;;;;5045834;28;20040;-77
2022/06/20 05:12:20;;;;;;;5.90;2.05;;;20.20;86.80;;;;;;5045730;28;20037;-78
2022/06/20 05:15:10;;;;;;;3.75;1.48;;;20.20;88.80;;;;;;5053944;28;20046;-78
2022/06/20 05:17:38;;;;;;;6.20;1.87;;;20.20;87.70;;;;;;5044583;28;20124;-78
2022/06/20 05:20:26;;;;;;;8.95;2.08;;;20.20;86.60;;;;;;5036138;28;20036;-77
2022/06/20 05:23:10;;;;;;;4.55;1.33;;;20.10;88.90;;;;;;5034059;28;20037;-77
2022/06/20 05:25:38;;;;;;;6.38;1.95;;;20.20;89.90;;;;;;5033367;28;20038;-78
2022/06/20 05:28:18;;;;;;;5.47;1.70;;;20.20;88.80;;;;;;5032026;28;20037;-77
2022/06/20 05:30:45;;;;;;;12.13;2.08;;;20.20;89.80;;;;;;5033326;28;20037;-76
2022/06/20 05:33:29;;;;;;;7.25;1.85;;;20.30;90.50;;;;;;5047895;28;20041;-77
2022/06/20 05:36:02;;;;;;;4.82;1.90;;;20.10;91.20;;;;;;5032576;28;20037;-76
2022/06/20 05:38:31;;;;;;;5.90;2.65;;;20.10;91.70;;;;;;5031573;28;20037;-75
2022/06/20 05:40:59;;;;;;;5.83;1.60;;;20.20;91.90;;;;;;5034503;28;20029;-76
2022/06/20 05:43:30;;;;;;;4.28;2.13;;;20.20;91.80;;;;;;5031515;28;20068;-74
2022/06/20 05:46:04;;;;;;;6.80;1.77;;;20.20;91.90;;;;;;5031674;28;20044;-76
2022/06/20 05:48:36;;;;;;;4.60;2.13;;;20.00;92.10;;;;;;5031611;28;20041;-75
2022/06/20 05:51:06;;;;;;;4.55;1.40;;;20.10;91.70;;;;;;5033762;28;20033;-75
2022/06/20 05:53:37;;;;;;;6.20;2.58;;;20.20;91.50;;;;;;5034934;28;20045;-75
2022/06/20 05:56:27;;;;;;;3.53;1.65;;;20.20;91.50;;;;;;5043324;28;20036;-76
2022/06/20 05:58:55;;;;;;;7.38;2.05;;;20.10;91.00;;;;;;5031569;28;20041;-76
2022/06/20 06:01:34;;;;;;;6.45;2.28;;;20.10;91.00;;;;;;5032365;28;20379;-75
2022/06/20 06:04:33;;;;;;;7.83;1.80;;;20.20;90.90;;;;;;5031714;28;20036;-75
2022/06/20 06:07:09;;;;;;;6.65;1.88;;;20.10;90.70;;;;;;5046363;28;20772;-75
2022/06/20 06:09:49;;;;;;;5.18;1.75;;;20.20;90.60;;;;;;5032451;28;20041;-76
2022/06/20 06:12:39;;;;;;;6.90;2.25;;;20.20;90.30;;;;;;5033100;28;20061;-76
2022/06/20 06:15:15;;;;;;;6.00;1.60;;;20.10;90.80;;;;;;5037394;28;20049;-77
2022/06/20 06:17:51;;;;;;;15.48;2.60;;;20.00;90.50;;;;;;5041598;28;20402;-75
2022/06/20 06:20:23;;;;;;;5.82;2.33;;;19.80;93.10;;;;;;5032462;28;20029;-77
2022/06/20 06:22:53;;;;;;;6.30;2.03;;;19.40;95.90;;;;;;5042786;28;20048;-76
2022/06/20 06:25:28;;;;;;;7.45;1.65;;;19.10;97.80;;;;;;5031750;28;20029;-76
2022/06/20 06:28:00;;;;;;;10.82;2.50;;;18.80;99.70;;;;;;5046300;28;20033;-76
2022/06/20 06:30:42;;;;;;;8.95;3.50;;;18.70;99.90;;;;;;5044102;28;20477;-77
2022/06/20 06:33:34;;;;;;;7.00;2.08;;;18.80;99.90;;;;;;5036630;28;20037;-78
2022/06/20 06:36:07;;;;;;;6.00;2.58;;;18.90;99.90;;;;;;5035323;28;20030;-79
2022/06/20 06:38:45;;;;;;;12.75;2.70;;;19.00;99.90;;;;;;5034094;28;20422;-78
2022/06/20 06:41:40;;;;;;;9.85;2.80;;;19.10;99.90;;;;;;5039601;28;20032;-79
2022/06/20 06:44:29;;;;;;;8.60;1.92;;;19.10;99.90;;;;;;5042612;28;20487;-79
2022/06/20 06:46:57;;;;;;;6.05;2.22;;;19.10;99.90;;;;;;5034529;28;20036;-78
2022/06/20 06:49:46;;;;;;;7.25;2.55;;;19.30;99.30;;;;;;5035408;28;20379;-76
2022/06/20 06:52:27;;;;;;;7.07;2.50;;;19.40;99.90;;;;;;5035343;28;20045;-78
2022/06/20 06:55:23;;;;;;;5.65;2.33;;;19.70;99.90;;;;;;5035519;28;20046;-79
2022/06/20 06:57:55;;;;;;;9.40;2.95;;;19.80;98.20;;;;;;5041929;28;20044;-78
2022/06/20 07:00:37;;;;;;;10.20;3.05;;;20.10;98.70;;;;;;5053954;28;20033;-77
2022/06/20 07:03:28;;;;;;;12.38;4.35;;;20.10;97.90;;;;;;5039058;28;20037;-79
2022/06/20 07:06:00;;;;;;;7.32;2.50;;;20.30;96.90;;;;;;5035773;28;20038;-78
2022/06/20 07:08:34;;;;;;;6.10;2.05;;;20.40;97.00;;;;;;5036069;28;20498;-78
2022/06/20 07:11:12;;;;;;;5.22;3.08;;;20.80;95.00;;;;;;5053432;28;20033;-77
2022/06/20 07:13:50;;;;;;;7.88;2.30;;;20.80;95.00;;;;;;5041917;28;20041;-77
2022/06/20 07:16:18;;;;;;;7.25;1.90;;;21.40;92.60;;;;;;5036225;28;20082;-77
2022/06/20 07:18:51;;;;;;;10.32;1.90;;;21.60;92.30;;;;;;5039034;28;20029;-77
2022/06/20 07:21:21;;;;;;;5.15;2.03;;;21.80;91.30;;;;;;5044719;28;20037;-80
2022/06/20 07:24:00;;;;;;;4.65;1.83;;;22.50;88.60;;;;;;5037972;28;20044;-79
2022/06/20 07:26:30;;;;;;;3.60;1.63;;;22.00;88.70;;;;;;5045962;28;20025;-81
2022/06/20 07:29:05;;;;;;;8.20;2.28;;;22.90;82.80;;;;;;5034936;28;20030;-79
2022/06/20 07:31:47;;;;;;;4.38;1.55;;;22.40;83.80;;;;;;5036100;28;20033;-78
2022/06/20 07:34:25;;;;;;;6.25;1.95;;;21.40;86.00;;;;;;5035015;28;20037;-78
2022/06/20 07:36:58;;;;;;;5.50;1.70;;;20.80;90.50;;;;;;5034552;28;20033;-79
2022/06/20 07:39:32;;;;;;;6.00;1.80;;;20.40;92.90;;;;;;5034785;28;20474;-76
2022/06/20 07:42:03;;;;;;;4.68;2.03;;;20.20;94.30;;;;;;5036523;28;20044;-76
2022/06/20 07:44:37;;;;;;;;;;;20.00;96.50;;;;;;5034667;28;20021;-77
2022/06/20 07:47:14;;;;;;;5.80;1.77;;;19.90;97.80;;;;;;5049143;28;19909;-78
2022/06/20 07:49:49;;;;;;;5.85;2.00;;;19.90;98.20;;;;;;5035149;28;20108;-77
2022/06/20 07:52:57;;;;;;;7.88;2.78;;;20.00;99.40;;;;;;5034751;28;20038;-77
2022/06/20 07:55:29;;;;;;;8.40;2.65;;;19.80;99.20;;;;;;5034188;28;20060;-77
2022/06/20 07:58:12;;;;;;;8.48;2.38;;;19.70;98.20;;;;;;5032722;28;20045;-77
2022/06/20 08:00:51;;;;;;;6.53;2.08;;;19.70;98.50;;;;;;5035082;28;20037;-78
2022/06/20 08:03:36;;;;;;;3.90;1.67;;;19.60;97.90;;;;;;5034300;28;20121;-78
2022/06/20 08:06:15;;;;;;;5.95;2.53;;;19.50;96.70;;;;;;5049759;28;20037;-77
2022/06/20 08:08:47;;;;;;;4.40;1.92;;;19.80;95.80;;;;;;5033229;28;20037;-76
2022/06/20 08:11:41;;;;;;;8.65;2.08;;;19.90;97.20;;;;;;5034046;28;20463;-80
2022/06/20 08:14:30;;;;;;;6.60;2.40;;;20.10;97.60;;;;;;5044485;28;20037;-77
2022/06/20 08:17:00;;;;;;;5.82;2.42;;;20.30;95.70;;;;;;5032685;28;20037;-79
2022/06/20 08:19:29;;;;;;;5.95;2.85;;;20.50;95.60;;;;;;5034375;28;20040;-87
2022/06/20 08:22:13;;;;;;;8.30;2.53;;;20.00;96.50;;;;;;5041226;28;20056;-84
2022/06/20 08:25:01;;;;;;;4.93;2.70;;;20.00;96.90;;;;;;5047800;28;20350;-79
2022/06/20 08:27:43;;;;;;;6.07;2.03;;;20.10;95.20;;;;;;5043931;28;20033;-79
2022/06/20 08:30:12;;;;;;;10.35;2.47;;;20.20;95.70;;;;;;5047164;28;20034;-78
2022/06/20 08:32:47;;;;;;;7.50;2.25;;;20.10;96.10;;;;;;5041580;28;20459;-79
2022/06/20 08:35:40;;;;;;;4.75;2.05;;;20.10;96.70;;;;;;5045296;28;20028;-79
2022/06/20 08:38:42;;;;;;;10.25;3.42;;;20.20;96.30;;;;;;5040658;28;20040;-78
2022/06/20 08:41:20;;;;;;;6.60;3.05;;;20.40;95.40;;;;;;5039136;28;20373;-79
2022/06/20 08:44:11;;;;;;;5.10;2.30;;;20.20;95.60;;;;;;5042001;28;20033;-78
2022/06/20 08:47:28;;;;;;;5.45;2.22;;;20.30;95.80;;;;;;5032406;28;20044;-80
2022/06/20 08:50:31;;;;;;;5.78;2.28;;;20.80;96.20;;;;;;5029172;28;20037;-80
2022/06/20 08:53:22;;;;;;;5.00;2.08;;;21.00;94.10;;;;;;5044145;28;20048;-78
2022/06/20 08:55:58;;;;;;;6.50;2.40;;;21.40;92.80;;;;;;5049713;28;20036;-77
2022/06/20 08:58:25;;;;;;;10.13;2.60;;;22.80;91.30;;;;;;5043888;28;20025;-77
2022/06/20 09:00:57;;;;;;;6.57;2.67;;;23.30;90.60;;;;;;5050112;28;20032;-78
2022/06/20 09:03:48;;;;;;;8.00;2.60;;;22.90;90.70;;;;;;5043678;28;20029;-77
2022/06/20 09:06:38;;;;;;;5.43;2.50;;;22.60;90.40;;;;;;5046749;28;20393;-75
2022/06/20 09:09:07;;;;;;;5.75;2.58;;;22.20;91.40;;;;;;5048058;28;20043;-78
2022/06/20 09:12:09;;;;;;;10.85;2.65;;;22.50;91.50;;;;;;5045434;28;20036;-80
2022/06/20 09:14:41;;;;;;;5.70;2.20;;;21.90;92.70;;;;;;5038908;28;20052;-78
2022/06/20 09:17:13;;;;;;;7.88;2.53;;;21.90;92.50;;;;;;5038077;28;20029;-87
2022/06/20 09:19:39;;;;;;;6.88;2.65;;;21.70;92.80;;;;;;5037462;28;20029;-83
2022/06/20 09:22:18;;;;;;;6.90;3.13;;;21.90;93.20;;;;;;5064713;28;20033;-77
2022/06/20 09:25:05;;;;;;;8.80;3.80;;;22.10;93.90;;;;;;5042145;28;20076;-78
2022/06/20 09:27:37;;;;;;;7.45;3.35;;;22.40;93.00;;;;;;5039307;28;20029;-81
2022/06/20 09:30:10;;;;;;;5.63;3.50;;;22.00;94.20;;;;;;5040799;28;20033;-82
2022/06/20 09:32:52;;;;;;;7.15;3.90;;;21.70;95.40;;;;;;5041929;28;20033;-84
2022/06/20 09:35:51;;;;;;;12.18;4.00;;;21.70;95.80;;;;;;5039532;28;20478;-80
2022/06/20 09:38:41;;;;;;;8.63;3.13;;;21.20;97.20;;;;;;5035533;28;20540;-78
2022/06/20 09:41:20;;;;;;;6.15;2.95;;;21.30;97.40;;;;;;5050636;28;20049;-77
2022/06/20 09:43:56;;;;;;;9.57;3.17;;;21.30;97.50;;;;;;5033074;28;20336;-80
2022/06/20 09:46:49;;;;;;;3.75;2.08;;;21.00;98.50;;;;;;5031427;28;20025;-82
2022/06/20 09:49:19;;;;;;;3.92;2.30;;;20.70;99.90;;;;;;5032194;28;20055;-82
2022/06/20 09:52:04;;;;;;;6.30;2.30;;;20.40;99.90;;;;;;5032276;28;20029;-79
2022/06/20 09:54:49;;;;;;;3.25;1.85;;;20.40;99.90;;;;;;5045245;28;20041;-82
2022/06/20 09:57:32;;;;;;;8.50;1.77;;;20.60;99.60;;;;;;5045794;28;20033;-83
2022/06/20 10:00:08;;;;;;;3.10;1.88;;;20.70;99.80;;;;;;5047418;28;20459;-83
2022/06/20 10:02:59;;;;;;;7.38;1.65;;;21.00;97.90;;;;;;5045744;28;20056;-82
2022/06/20 10:05:34;;;;;;;3.40;2.13;;;20.60;98.10;;;;;;5045931;28;20037;-80
2022/06/20 10:08:15;;;;;;;3.00;2.00;;;20.90;97.80;;;;;;5046895;28;20033;-72
2022/06/20 10:10:53;;;;;;;4.22;1.70;;;21.70;96.70;;;;;;5050947;28;20025;-77
2022/06/20 10:13:42;;;;;;;3.85;2.10;;;22.00;94.90;;;;;;5041094;28;21032;-81
2022/06/20 10:16:17;;;;;;;4.18;1.70;;;21.60;95.70;;;;;;5042789;28;20033;-79
2022/06/20 10:19:04;;;;;;;4.90;3.00;;;21.30;96.50;;;;;;5036903;28;20025;-81
2022/06/20 10:21:41;;;;;;;2.55;1.52;;;21.40;96.30;;;;;;5037016;28;20025;-81
2022/06/20 10:24:29;;;;;;;3.00;1.67;;;21.30;95.70;;;;;;5050084;28;20036;-79
2022/06/20 10:26:58;;;;;;;3.72;1.70;;;21.10;96.00;;;;;;5038884;28;20048;-78
2022/06/20 10:29:50;;;;;;;3.25;1.35;;;20.90;95.70;;;;;;5043556;28;20036;-82
2022/06/20 10:32:31;;;;;;;2.00;1.33;;;20.40;96.40;;;;;;5038280;28;20033;-80
2022/06/20 10:35:36;;;;;;;3.17;1.30;;;20.40;96.50;;;;;;5035814;28;20041;-79
2022/06/20 10:38:08;;;;;;;1.50;1.17;;;19.90;97.20;;;;;;5035467;28;20025;-74
2022/06/20 10:40:56;;;;;;;3.28;1.20;;;20.00;97.10;;;;;;5046207;28;20041;-77
2022/06/20 10:43:44;;;;;;;1.92;1.08;;;20.10;97.00;;;;;;5051698;28;20025;-84
2022/06/20 10:46:26;;;;;;;1.83;1.02;;;20.40;96.50;;;;;;5041889;28;20036;-77
2022/06/20 10:49:01;;;;;;;1.35;0.80;;;20.90;94.90;;;;;;5045030;28;20029;-89
2022/06/20 10:51:56;;;;;;;0.93;0.70;;;21.40;93.20;;;;;;5048327;28;20060;-84
2022/06/20 10:54:22;;;;;;;1.35;0.90;;;20.90;93.70;;;;;;5040957;28;20608;-79
2022/06/20 10:57:20;;;;;;;3.47;0.88;;;20.70;94.10;;;;;;5045005;28;20041;-79
2022/06/20 11:00:02;;;;;;;1.30;0.63;;;20.90;93.60;;;;;;5043777;28;20386;-80
2022/06/20 11:02:49;;;;;;;2.90;1.23;;;20.60;93.60;;;;;;5037096;28;20030;-80
2022/06/20 11:05:40;;;;;;;3.05;0.65;;;20.60;92.60;;;;;;5035887;28;20040;-75
2022/06/20 11:08:26;;;;;;;1.08;0.75;;;20.60;92.40;;;;;;5035277;28;20029;-83
2022/06/20 11:11:20;;;;;;;0.93;0.60;;;20.60;91.70;;;;;;5037469;28;20032;-88
2022/06/20 11:13:55;;;;;;;1.90;0.65;;;20.70;92.30;;;;;;5037469;28;20053;-86
2022/06/20 11:16:31;;;;;;;2.22;0.85;;;20.70;92.30;;;;;;5036267;28;20033;-84
2022/06/20 11:19:16;;;;;;;0.55;0.43;;;20.90;92.20;;;;;;5036533;28;20029;-81
2022/06/20 11:22:02;;;;;;;1.17;0.90;;;20.90;92.30;;;;;;5036254;28;20040;-84
2022/06/20 11:25:07;;;;;;;4.30;1.48;;;21.30;91.50;;;;;;5038374;28;20049;-79
2022/06/20 11:27:36;;;;;;;1.05;0.82;;;21.00;91.80;;;;;;5022799;28;20368;-78
2022/06/20 11:30:25;;;;;;;2.35;0.90;;;21.10;91.80;;;;;;5044615;28;20033;-75
2022/06/20 11:34:09;;;;;;;3.63;1.40;;;21.50;91.00;;;;;;5043655;28;20033;-77
2022/06/20 11:36:46;;;;;;;2.15;1.25;;;21.80;90.40;;;;;;5042493;28;20454;-83
2022/06/20 11:39:31;;;;;;;2.55;1.05;;;21.50;90.30;;;;;;5035251;28;20041;-78
2022/06/20 11:42:26;;;;;;;2.42;1.33;;;21.10;91.30;;;;;;5035990;28;20037;-78
2022/06/20 11:45:17;;;;;;;2.35;1.10;;;20.50;92.00;;;;;;5034142;28;20098;-77
2022/06/20 11:48:23;;;;;;;1.95;1.30;;;20.20;92.70;;;;;;5033649;28;20033;-83
2022/06/20 11:50:59;;;;;;;2.38;1.60;;;20.20;92.60;;;;;;5048430;28;20030;-81
2022/06/20 11:53:44;;;;;;;3.08;1.73;;;19.90;93.10;;;;;;5037338;28;20037;-79
2022/06/20 11:56:26;;;;;;;2.65;1.13;;;19.60;94.10;;;;;;5035320;28;20491;-77
2022/06/20 11:59:08;;;;;;;2.95;1.55;;;19.40;95.10;;;;;;5051790;28;20368;-77
2022/06/20 12:02:02;;;;;;;1.40;1.30;;;19.40;95.20;;;;;;5045802;28;20402;-78
2022/06/20 12:04:38;;;;;;;2.53;1.63;;;19.50;94.80;;;;;;5034109;28;20049;-79
2022/06/20 12:07:13;;;;;;;3.15;1.85;;;19.30;94.80;;;;;;5046198;28;20370;-79
2022/06/20 12:10:01;;;;;;;1.70;1.30;;;19.20;95.00;;;;;;5035213;28;20033;-77
2022/06/20 12:12:58;;;;;;;1.83;1.38;;;19.30;94.70;;;;;;5034603;28;20380;-78
2022/06/20 12:15:51;;;;;;;2.42;1.42;;;19.50;94.20;;;;;;5036760;28;20052;-79
2022/06/20 12:23:18;;;;;;;3.75;1.80;;;19.40;93.90;;;;;;5032467;28;20025;-85
2022/06/20 12:24:17;;;;;;;2.25;1.17;;;19.60;92.50;;;;;;5036745;28;20041;-79
2022/06/20 12:26:43;;;;;;;3.10;1.70;;;19.60;92.70;;;;;;5031443;28;20029;-85
2022/06/20 12:29:22;;;;;;;3.53;1.50;;;19.60;91.90;;;;;;5033761;28;20052;-82
2022/06/20 12:31:53;;;;;;;2.50;1.75;;;19.90;91.50;;;;;;5033775;28;20040;-80
2022/06/20 12:34:36;;;;;;;3.47;1.52;;;19.90;91.50;;;;;;5040566;28;20474;-79
2022/06/20 12:37:05;;;;;;;2.80;1.50;;;20.10;91.80;;;;;;5034138;28;20053;-78
2022/06/20 12:39:42;;;;;;;4.70;1.80;;;20.20;91.10;;;;;;5033594;28;20025;-83
2022/06/20 12:42:31;;;;;;;2.15;1.63;;;20.10;91.10;;;;;;5033373;28;20033;-80
2022/06/20 12:45:54;;;;;;;4.15;1.58;;;20.00;91.90;;;;;;5033804;28;20467;-79
2022/06/20 12:48:38;;;;;;;3.67;1.58;;;19.80;92.60;;;;;;5003943;28;20049;-82
2022/06/20 12:51:39;;;;;;;2.55;1.58;;;19.50;92.90;;;;;;4994199;28;20534;-78
2022/06/20 12:54:14;;;;;;;5.50;1.77;;;19.30;93.50;;;;;;5003883;28;20060;-78
2022/06/20 12:56:43;;;;;;;3.28;1.85;;;19.30;93.60;;;;;;5007896;28;20053;-82
2022/06/20 12:59:33;;;;;;;2.55;1.55;;;19.10;93.80;;;;;;4991250;28;20589;-81
2022/06/20 13:02:38;;;;;;;2.53;1.40;;;19.10;93.90;;;;;;4994113;28;20034;-82
2022/06/20 13:05:46;;;;;;;2.10;1.48;;;19.60;92.80;;;;;;5000466;28;20094;-76
2022/06/20 13:08:24;;;;;;;4.70;1.10;;;19.40;92.20;;;;;;5000442;28;20042;-81
2022/06/20 13:10:51;;;;;;;4.45;1.70;;;19.70;91.10;;;;;;5005725;28;20041;-80
2022/06/20 13:13:20;;;;;;;1.90;1.13;;;20.10;90.50;;;;;;4998586;28;20065;-78
2022/06/20 13:15:58;;;;;;;3.00;1.00;;;20.50;89.50;;;;;;4999755;28;20045;-78
2022/06/20 13:18:42;;;;;;;1.42;0.90;;;20.60;88.50;;;;;;4998667;28;20037;-82
2022/06/20 13:21:46;;;;;;;3.42;1.08;;;20.40;89.00;;;;;;5033515;28;20378;-86
2022/06/20 13:24:35;;;;;;;6.90;0.82;;;20.40;90.10;;;;;;5042235;28;20060;-83
2022/06/20 13:27:38;;;;;;;3.50;1.10;;;20.70;87.70;;;;;;5032372;28;20025;-79
2022/06/20 13:30:14;;;;;;;2.22;1.10;;;21.00;85.40;;;;;;5048030;28;20045;-81
2022/06/20 13:32:51;;;;;;;1.63;0.60;;;20.70;85.10;;;;;;5032883;28;20482;-85
2022/06/20 13:35:50;;;;;;;2.33;0.55;;;20.20;87.20;;;;;;5032805;28;20033;-84
2022/06/20 13:38:24;;;;;;;2.03;0.50;;;20.30;86.80;;;;;;5035039;28;20037;-85
2022/06/20 13:41:19;;;;;;;1.08;0.50;;;20.70;84.50;;;;;;5034432;28;20037;-81
2022/06/20 13:44:15;;;;;;;1.52;0.60;;;20.80;82.70;;;;;;5033229;28;20411;-81
2022/06/20 13:46:55;;;;;;;1.33;0.60;;;20.60;82.10;;;;;;5032742;28;20029;-81
2022/06/20 13:49:26;;;;;;;2.80;0.80;;;20.00;84.00;;;;;;5033777;28;20032;-85
2022/06/20 13:51:55;;;;;;;2.40;0.77;;;19.70;85.00;;;;;;5046744;28;20489;-81
2022/06/20 13:54:33;;;;;;;1.33;0.53;;;19.30;85.40;;;;;;5051717;28;20454;-80
2022/06/20 13:57:12;;;;;;;2.85;0.50;;;19.40;86.30;;;;;;5053654;28;20037;-79